createdAt,value
2022-12-27T00:00:12.365Z,0.60
2022-12-27T00:01:12.366Z,0.70
2022-12-27T00:02:12.377Z,0.70
2022-12-27T00:03:12.403Z,0.90
2022-12-27T00:04:12.354Z,0.80
2022-12-27T00:05:12.339Z,0.90
2022-12-27T00:06:12.353Z,0.70
2022-12-27T00:07:12.323Z,0.80
2022-12-27T00:08:12.303Z,0.90
2022-12-27T00:09:12.319Z,1.10
2022-12-27T00:10:12.285Z,1.50
2022-12-27T00:11:12.301Z,0.70
2022-12-27T00:12:12.252Z,1.10
2022-12-27T00:13:12.260Z,0.60
2022-12-27T00:14:12.265Z,0.70
2022-12-27T00:15:12.225Z,1.00
2022-12-27T00:16:18.758Z,1.20
2022-12-27T00:17:12.312Z,1.00
2022-12-27T00:18:12.187Z,0.90
2022-12-27T00:19:12.219Z,0.60
2022-12-27T00:20:12.240Z,0.70
2022-12-27T00:21:12.191Z,0.80
2022-12-27T00:22:12.179Z,0.90
2022-12-27T00:23:12.154Z,0.80
2022-12-27T00:24:12.168Z,0.90
2022-12-27T00:25:12.115Z,0.90
2022-12-27T00:26:12.114Z,0.80
2022-12-27T00:27:12.085Z,0.60
2022-12-27T00:28:12.081Z,0.90
2022-12-27T00:29:12.124Z,0.60
2022-12-27T00:30:12.066Z,0.90
2022-12-27T00:31:12.136Z,1.00
2022-12-27T00:32:12.047Z,1.20
2022-12-27T00:33:12.056Z,1.40
2022-12-27T00:34:12.068Z,1.00
2022-12-27T00:35:12.039Z,0.50
2022-12-27T00:36:12.023Z,0.90
2022-12-27T00:37:12.030Z,1.40
2022-12-27T00:38:11.989Z,0.70
2022-12-27T00:39:12.002Z,0.90
2022-12-27T00:40:11.983Z,0.90
2022-12-27T00:41:11.963Z,1.00
2022-12-27T00:42:11.951Z,0.90
2022-12-27T00:43:11.937Z,0.70
2022-12-27T00:44:11.982Z,0.80
2022-12-27T00:45:11.927Z,0.80
2022-12-27T00:46:12.013Z,0.80
2022-12-27T00:47:11.896Z,0.90
2022-12-27T00:48:11.907Z,0.70
2022-12-27T00:49:11.935Z,0.80
2022-12-27T00:50:11.870Z,0.90
2022-12-27T00:51:11.868Z,1.00
2022-12-27T00:52:11.846Z,0.80
2022-12-27T00:53:11.839Z,1.00
2022-12-27T00:54:11.869Z,0.80
2022-12-27T00:55:11.863Z,1.30
2022-12-27T00:56:11.812Z,0.70
2022-12-27T00:57:11.822Z,0.80
2022-12-27T00:58:11.806Z,0.70
2022-12-27T00:59:11.881Z,0.80
2022-12-27T01:00:11.782Z,0.80
2022-12-27T01:01:11.963Z,0.90
2022-12-27T01:02:11.830Z,1.00
2022-12-27T01:03:11.736Z,1.30
2022-12-27T01:04:11.784Z,0.80
2022-12-27T01:05:11.740Z,1.10
2022-12-27T01:06:11.701Z,1.40
2022-12-27T01:07:11.722Z,1.00
2022-12-27T01:08:11.686Z,1.10
2022-12-27T01:09:11.737Z,1.00
2022-12-27T01:10:11.682Z,0.80
2022-12-27T01:11:11.656Z,1.10
2022-12-27T01:12:11.641Z,1.10
2022-12-27T01:13:11.645Z,0.80
2022-12-27T01:14:11.630Z,0.80
2022-12-27T01:15:11.659Z,1.10
2022-12-27T01:16:11.689Z,1.10
2022-12-27T01:17:11.598Z,1.00
2022-12-27T01:18:11.600Z,1.10
2022-12-27T01:19:12.087Z,0.60
2022-12-27T01:20:11.607Z,1.10
2022-12-27T01:21:11.584Z,0.80
2022-12-27T01:22:11.588Z,0.80
2022-12-27T01:23:11.628Z,0.70
2022-12-27T01:24:11.542Z,0.70
2022-12-27T01:25:11.544Z,1.00
2022-12-27T01:26:11.514Z,1.00
2022-12-27T01:27:11.522Z,0.80
2022-12-27T01:28:11.507Z,1.20
2022-12-27T01:29:11.510Z,0.80
2022-12-27T01:30:11.500Z,0.90
2022-12-27T01:31:11.492Z,0.90
2022-12-27T01:32:11.464Z,1.30
2022-12-27T01:33:11.459Z,0.70
2022-12-27T01:34:11.463Z,1.40
2022-12-27T01:35:11.451Z,0.90
2022-12-27T01:36:11.412Z,1.20
2022-12-27T01:37:11.404Z,1.40
2022-12-27T01:38:11.429Z,1.30
2022-12-27T01:39:11.418Z,2.10
2022-12-27T01:40:11.416Z,1.30
2022-12-27T01:41:11.360Z,0.90
2022-12-27T01:42:11.371Z,1.10
2022-12-27T01:43:11.347Z,0.80
2022-12-27T01:44:11.339Z,1.10
2022-12-27T01:45:11.386Z,0.80
2022-12-27T01:46:11.425Z,1.40
2022-12-27T01:47:11.298Z,1.00
2022-12-27T01:48:11.289Z,0.80
2022-12-27T01:49:11.306Z,1.20
2022-12-27T01:50:11.318Z,1.30
2022-12-27T01:51:11.262Z,1.30
2022-12-27T01:52:11.319Z,1.00
2022-12-27T01:53:11.248Z,1.00
2022-12-27T01:54:11.247Z,1.10
2022-12-27T01:55:11.265Z,1.20
2022-12-27T01:56:11.225Z,1.20
2022-12-27T01:57:11.207Z,1.20
2022-12-27T01:58:11.177Z,1.60
2022-12-27T01:59:11.181Z,1.10
2022-12-27T02:00:11.202Z,1.20
2022-12-27T02:01:11.343Z,1.20
2022-12-27T02:02:11.366Z,1.10
2022-12-27T02:03:11.197Z,1.70
2022-12-27T02:04:11.165Z,1.30
2022-12-27T02:05:11.171Z,1.70
2022-12-27T02:06:11.132Z,1.00
2022-12-27T02:07:11.162Z,1.30
2022-12-27T02:08:11.128Z,1.00
2022-12-27T02:09:11.192Z,1.10
2022-12-27T02:10:11.117Z,1.10
2022-12-27T02:11:11.057Z,1.00
2022-12-27T02:12:11.069Z,1.80
2022-12-27T02:13:11.066Z,1.00
2022-12-27T02:14:11.055Z,1.30
2022-12-27T02:15:11.085Z,1.30
2022-12-27T02:16:11.055Z,0.90
2022-12-27T02:17:11.005Z,1.40
2022-12-27T02:18:11.007Z,1.10
2022-12-27T02:19:11.003Z,1.30
2022-12-27T02:20:11.000Z,1.20
2022-12-27T02:23:26.887Z,1.40
2022-12-27T02:24:27.879Z,1.50
2022-12-27T02:25:27.885Z,1.00
2022-12-27T02:26:27.833Z,1.40
2022-12-27T02:27:27.827Z,1.30
2022-12-27T02:28:27.813Z,1.20
2022-12-27T02:29:27.801Z,1.20
2022-12-27T02:30:27.870Z,1.30
2022-12-27T02:31:27.782Z,1.30
2022-12-27T02:32:27.770Z,1.30
2022-12-27T02:33:27.800Z,2.10
2022-12-27T02:34:27.791Z,1.30
2022-12-27T02:35:27.806Z,1.20
2022-12-27T02:36:27.735Z,1.10
2022-12-27T02:37:27.754Z,1.80
2022-12-27T02:38:27.732Z,1.50
2022-12-27T02:39:27.731Z,1.50
2022-12-27T02:40:27.712Z,1.20
2022-12-27T02:41:27.680Z,1.10
2022-12-27T02:46:03.405Z,1.60
2022-12-27T02:47:03.003Z,1.30
2022-12-27T02:48:03.034Z,1.30
2022-12-27T02:49:02.960Z,1.20
2022-12-27T02:50:02.977Z,1.50
2022-12-27T02:51:02.980Z,1.60
2022-12-27T02:52:02.969Z,1.40
2022-12-27T02:53:02.931Z,1.30
2022-12-27T02:54:02.912Z,1.20
2022-12-27T02:55:02.922Z,1.40
2022-12-27T02:56:02.932Z,1.40
2022-12-27T02:57:02.883Z,1.70
2022-12-27T02:58:02.886Z,1.40
2022-12-27T02:59:02.902Z,1.10
2022-12-27T03:02:18.915Z,0.80
2022-12-27T03:03:27.822Z,1.50
2022-12-27T03:11:45.726Z,1.70
2022-12-27T03:12:44.491Z,1.80
2022-12-27T03:13:44.363Z,1.40
2022-12-27T03:14:44.354Z,1.50
2022-12-27T03:15:44.402Z,1.60
2022-12-27T03:16:44.382Z,1.70
2022-12-27T03:17:44.327Z,1.50
2022-12-27T03:18:44.330Z,1.60
2022-12-27T03:19:44.326Z,1.70
2022-12-27T03:20:44.322Z,1.40
2022-12-27T03:21:44.310Z,2.00
2022-12-27T03:22:44.276Z,1.90
2022-12-27T03:23:44.266Z,1.60
2022-12-27T03:24:44.292Z,1.40
2022-12-27T03:25:44.248Z,1.80
2022-12-27T03:26:44.267Z,1.40
2022-12-27T03:27:44.215Z,1.90
2022-12-27T03:28:44.237Z,1.30
2022-12-27T03:29:44.287Z,1.60
2022-12-27T03:30:44.252Z,1.70
2022-12-27T03:31:44.218Z,1.70
2022-12-27T03:32:44.184Z,2.10
2022-12-27T03:33:44.151Z,1.10
2022-12-27T03:34:44.165Z,1.60
2022-12-27T03:35:44.159Z,1.10
2022-12-27T03:36:44.170Z,1.70
2022-12-27T03:37:44.176Z,1.20
2022-12-27T03:38:44.103Z,1.30
2022-12-27T03:39:44.085Z,1.60
2022-12-27T03:40:44.144Z,1.60
2022-12-27T03:41:44.089Z,1.90
2022-12-27T03:42:44.057Z,1.40
2022-12-27T03:43:44.080Z,1.80
2022-12-27T03:44:44.035Z,1.80
2022-12-27T03:45:44.054Z,1.50
2022-12-27T03:46:44.127Z,1.70
2022-12-27T03:47:44.010Z,1.60
2022-12-27T03:48:44.002Z,1.80
2022-12-27T03:49:44.028Z,1.90
2022-12-27T03:50:44.006Z,1.90
2022-12-27T03:51:44.025Z,2.20
2022-12-27T03:52:43.985Z,2.00
2022-12-27T03:53:43.953Z,1.40
2022-12-27T03:54:43.947Z,1.70
2022-12-27T03:55:43.943Z,1.60
2022-12-27T03:56:43.951Z,1.70
2022-12-27T03:57:43.922Z,1.90
2022-12-27T03:58:43.931Z,1.80
2022-12-27T03:59:43.900Z,1.80
2022-12-27T04:00:43.887Z,1.80
2022-12-27T04:01:43.983Z,1.80
2022-12-27T04:02:44.026Z,2.10
2022-12-27T04:03:43.881Z,2.00
2022-12-27T04:04:43.912Z,2.00
2022-12-27T04:05:43.873Z,2.30
2022-12-27T04:06:43.874Z,1.80
2022-12-27T04:07:43.820Z,2.00
2022-12-27T04:08:43.840Z,1.50
2022-12-27T04:09:43.823Z,2.20
2022-12-27T04:10:43.795Z,1.90
2022-12-27T04:11:43.797Z,1.90
2022-12-27T04:12:43.769Z,1.90
2022-12-27T04:13:43.767Z,1.70
2022-12-27T04:14:43.742Z,2.30
2022-12-27T04:15:43.812Z,2.00
2022-12-27T04:16:43.775Z,1.90
2022-12-27T04:17:43.707Z,2.00
2022-12-27T04:18:43.734Z,1.80
2022-12-27T04:19:43.724Z,2.20
2022-12-27T04:20:43.695Z,1.90
2022-12-27T04:21:43.683Z,2.80
2022-12-27T04:22:43.749Z,1.80
2022-12-27T04:23:43.642Z,2.00
2022-12-27T04:24:43.674Z,1.90
2022-12-27T04:25:43.644Z,2.30
2022-12-27T04:26:43.669Z,2.10
2022-12-27T04:27:43.628Z,2.20
2022-12-27T04:28:43.622Z,2.40
2022-12-27T04:29:43.593Z,2.20
2022-12-27T04:30:43.586Z,2.30
2022-12-27T04:31:43.617Z,2.40
2022-12-27T04:32:43.608Z,1.90
2022-12-27T04:33:43.538Z,2.00
2022-12-27T04:34:43.711Z,1.70
2022-12-27T04:35:43.531Z,2.00
2022-12-27T04:36:43.524Z,2.20
2022-12-27T04:37:43.536Z,2.20
2022-12-27T04:38:43.500Z,2.10
2022-12-27T04:39:43.500Z,2.20
2022-12-27T04:40:43.505Z,2.60
2022-12-27T04:41:43.475Z,2.00
2022-12-27T04:42:43.496Z,1.90
2022-12-27T04:43:43.525Z,1.80
2022-12-27T04:44:43.453Z,1.90
2022-12-27T04:45:43.417Z,1.90
2022-12-27T04:46:43.432Z,2.00
2022-12-27T04:47:43.469Z,2.50
2022-12-27T04:48:43.397Z,2.20
2022-12-27T04:49:43.402Z,2.50
2022-12-27T04:50:43.425Z,2.30
2022-12-27T04:51:43.362Z,2.10
2022-12-27T04:52:43.391Z,2.80
2022-12-27T04:53:43.339Z,2.40
2022-12-27T04:54:43.365Z,3.00
2022-12-27T04:55:43.355Z,3.30
2022-12-27T04:56:43.318Z,2.80
2022-12-27T04:57:43.417Z,2.70
2022-12-27T04:58:43.293Z,3.20
2022-12-27T04:59:43.284Z,3.80
2022-12-27T05:00:43.268Z,2.70
2022-12-27T05:01:43.362Z,3.70
2022-12-27T05:02:43.505Z,3.30
2022-12-27T05:03:43.284Z,3.50
2022-12-27T05:04:43.256Z,3.60
2022-12-27T05:05:43.218Z,2.90
2022-12-27T05:06:43.220Z,3.10
2022-12-27T05:07:43.233Z,3.10
2022-12-27T05:08:43.211Z,3.20
2022-12-27T05:09:43.192Z,2.50
2022-12-27T05:10:43.190Z,2.90
2022-12-27T05:11:43.156Z,3.10
2022-12-27T05:12:43.187Z,3.00
2022-12-27T05:13:43.126Z,3.60
2022-12-27T05:14:43.153Z,3.40
2022-12-27T05:15:43.199Z,3.90
2022-12-27T05:16:43.136Z,3.70
2022-12-27T05:17:43.121Z,4.00
2022-12-27T05:18:43.110Z,4.10
2022-12-27T05:19:43.066Z,2.90
2022-12-27T05:20:43.083Z,4.10
2022-12-27T05:21:43.060Z,3.30
2022-12-27T05:22:43.165Z,3.10
2022-12-27T05:23:43.080Z,3.50
2022-12-27T05:24:43.044Z,3.30
2022-12-27T05:25:43.032Z,3.50
2022-12-27T05:26:43.043Z,4.10
2022-12-27T05:27:43.065Z,3.20
2022-12-27T05:28:43.379Z,2.80
2022-12-27T05:29:43.011Z,3.40
2022-12-27T05:30:43.002Z,3.90
2022-12-27T05:31:43.029Z,3.90
2022-12-27T05:32:42.979Z,3.00
2022-12-27T05:33:42.948Z,2.90
2022-12-27T05:34:42.948Z,3.40
2022-12-27T05:35:42.955Z,2.90
2022-12-27T05:36:42.910Z,3.50
2022-12-27T05:37:42.913Z,3.70
2022-12-27T05:38:42.891Z,5.30
2022-12-27T05:39:42.891Z,4.60
2022-12-27T05:40:42.862Z,4.30
2022-12-27T05:41:42.849Z,4.50
2022-12-27T05:42:42.874Z,4.60
2022-12-27T05:43:42.860Z,4.60
2022-12-27T05:44:42.823Z,5.50
2022-12-27T05:45:42.835Z,4.30
2022-12-27T05:46:42.853Z,3.30
2022-12-27T05:47:42.849Z,4.50
2022-12-27T05:48:42.864Z,4.20
2022-12-27T05:49:42.798Z,4.20
2022-12-27T05:50:42.790Z,4.90
2022-12-27T05:51:42.803Z,5.40
2022-12-27T05:52:42.749Z,3.80
2022-12-27T05:53:42.776Z,4.40
2022-12-27T05:54:42.736Z,3.90
2022-12-27T05:55:42.711Z,4.70
2022-12-27T05:56:42.700Z,4.30
2022-12-27T05:57:42.720Z,3.90
2022-12-27T05:58:42.731Z,3.30
2022-12-27T05:59:42.700Z,3.70
2022-12-27T06:00:42.673Z,3.60
2022-12-27T06:01:42.790Z,4.70
2022-12-27T06:02:42.895Z,4.10
2022-12-27T06:03:42.682Z,3.50
2022-12-27T06:04:42.633Z,3.70
2022-12-27T06:05:42.601Z,3.80
2022-12-27T06:06:42.643Z,4.70
2022-12-27T06:07:42.593Z,3.30
2022-12-27T06:08:42.634Z,3.00
2022-12-27T06:09:42.668Z,2.90
2022-12-27T06:10:42.581Z,3.60
2022-12-27T06:11:42.579Z,3.60
2022-12-27T06:12:42.563Z,3.80
2022-12-27T06:13:42.574Z,3.50
2022-12-27T06:14:42.528Z,3.00
2022-12-27T06:15:42.536Z,3.10
2022-12-27T06:16:42.567Z,3.80
2022-12-27T06:17:42.494Z,3.20
2022-12-27T06:18:42.555Z,2.90
2022-12-27T06:19:42.471Z,3.10
2022-12-27T06:20:42.459Z,3.50
2022-12-27T06:21:42.496Z,3.10
2022-12-27T06:22:42.452Z,3.90
2022-12-27T06:23:42.459Z,3.10
2022-12-27T06:24:42.428Z,3.30
2022-12-27T06:25:42.400Z,3.40
2022-12-27T06:26:42.407Z,3.10
2022-12-27T06:27:42.414Z,3.70
2022-12-27T06:28:42.419Z,4.10
2022-12-27T06:29:42.367Z,5.10
2022-12-27T06:30:42.357Z,4.40
2022-12-27T06:31:42.400Z,3.20
2022-12-27T06:32:42.373Z,3.50
2022-12-27T06:33:42.357Z,4.10
2022-12-27T06:34:42.321Z,4.60
2022-12-27T06:35:42.322Z,5.30
2022-12-27T06:36:42.342Z,4.60
2022-12-27T06:37:42.309Z,5.00
2022-12-27T06:38:42.321Z,5.00
2022-12-27T06:39:42.264Z,4.10
2022-12-27T06:40:42.275Z,3.50
2022-12-27T06:41:42.262Z,4.10
2022-12-27T06:42:42.254Z,4.20
2022-12-27T06:43:42.259Z,4.40
2022-12-27T06:44:42.214Z,4.80
2022-12-27T06:45:42.272Z,4.60
2022-12-27T06:46:42.240Z,5.30
2022-12-27T06:47:42.190Z,4.10
2022-12-27T06:48:42.211Z,7.20
2022-12-27T06:49:42.219Z,3.90
2022-12-27T06:50:42.163Z,4.00
2022-12-27T06:51:42.147Z,5.10
2022-12-27T06:52:42.141Z,4.90
2022-12-27T06:53:42.206Z,4.00
2022-12-27T06:54:42.142Z,3.30
2022-12-27T06:55:42.142Z,3.70
2022-12-27T07:00:46.547Z,4.20
2022-12-27T07:01:47.454Z,4.60
2022-12-27T07:02:47.484Z,4.10
2022-12-27T07:03:47.385Z,4.00
2022-12-27T07:04:55.037Z,3.20
2022-12-27T07:05:55.173Z,3.90
2022-12-27T07:09:04.536Z,3.50
2022-12-27T07:10:05.472Z,3.60
2022-12-27T07:11:05.438Z,4.30
2022-12-27T07:12:05.487Z,4.00
2022-12-27T07:13:05.455Z,3.90
2022-12-27T07:14:05.478Z,3.90
2022-12-27T07:15:05.392Z,4.70
2022-12-27T07:16:05.463Z,4.60
2022-12-27T07:17:05.399Z,4.20
2022-12-27T07:18:05.378Z,3.90
2022-12-27T07:19:05.424Z,3.70
2022-12-27T07:20:05.343Z,3.40
2022-12-27T07:21:05.345Z,3.90
2022-12-27T07:22:05.356Z,3.80
2022-12-27T07:23:05.349Z,3.50
2022-12-27T07:24:05.349Z,3.80
2022-12-27T07:25:05.313Z,3.80
2022-12-27T07:26:05.354Z,3.90
2022-12-27T07:27:05.303Z,4.00
2022-12-27T07:28:05.303Z,3.60
2022-12-27T07:29:05.294Z,4.30
2022-12-27T07:30:05.269Z,3.60
2022-12-27T07:31:05.253Z,4.10
2022-12-27T07:32:05.326Z,4.10
2022-12-27T07:33:05.235Z,3.90
2022-12-27T07:34:05.252Z,4.00
2022-12-27T07:38:41.952Z,3.50
2022-12-27T07:39:40.496Z,3.50
2022-12-27T07:40:40.454Z,4.20
2022-12-27T07:41:40.517Z,4.30
2022-12-27T07:42:40.428Z,4.60
2022-12-27T07:43:40.429Z,4.00
2022-12-27T07:44:40.424Z,4.20
2022-12-27T07:45:40.434Z,4.20
2022-12-27T07:46:40.433Z,4.10
2022-12-27T07:47:40.400Z,3.40
2022-12-27T07:48:40.445Z,3.90
2022-12-27T07:49:40.431Z,3.10
2022-12-27T07:50:40.359Z,4.50
2022-12-27T07:51:40.348Z,3.30
2022-12-27T07:52:40.326Z,3.40
2022-12-27T07:53:40.343Z,4.30
2022-12-27T07:54:40.360Z,3.60
2022-12-27T07:55:40.315Z,3.60
2022-12-27T07:56:40.296Z,2.80
2022-12-27T07:57:40.277Z,3.30
2022-12-27T07:58:40.294Z,2.90
2022-12-27T07:59:40.303Z,3.10
2022-12-27T08:00:40.267Z,3.80
2022-12-27T08:01:40.285Z,3.70
2022-12-27T08:02:40.329Z,3.80
2022-12-27T08:03:40.303Z,4.00
2022-12-27T08:04:40.239Z,3.90
2022-12-27T08:05:40.212Z,4.30
2022-12-27T08:06:40.206Z,4.10
2022-12-27T08:07:40.177Z,4.20
2022-12-27T08:08:40.178Z,4.40
2022-12-27T08:09:40.191Z,4.00
2022-12-27T08:10:40.180Z,3.90
2022-12-27T08:11:40.159Z,4.00
2022-12-27T08:12:40.155Z,4.30
2022-12-27T08:13:40.127Z,3.70
2022-12-27T08:14:40.146Z,3.10
2022-12-27T08:15:40.135Z,3.40
2022-12-27T08:24:16.553Z,5.00
2022-12-27T08:25:17.524Z,5.10
2022-12-27T08:26:17.485Z,4.90
2022-12-27T08:27:17.469Z,4.80
2022-12-27T08:28:17.467Z,4.60
2022-12-27T08:29:17.567Z,4.00
2022-12-27T08:30:17.500Z,3.80
2022-12-27T08:31:17.529Z,4.10
2022-12-27T08:32:17.429Z,3.40
2022-12-27T08:33:17.478Z,4.50
2022-12-27T08:34:17.430Z,4.40
2022-12-27T08:35:50.854Z,4.60
2022-12-27T08:37:17.442Z,3.40
2022-12-27T08:38:17.370Z,3.40
2022-12-27T08:39:17.389Z,3.40
2022-12-27T08:40:17.407Z,4.00
2022-12-27T08:41:17.349Z,3.80
2022-12-27T08:42:17.351Z,2.60
2022-12-27T08:43:17.391Z,3.50
2022-12-27T08:44:17.320Z,2.40
2022-12-27T08:45:17.321Z,3.70
2022-12-27T08:46:17.317Z,3.60
2022-12-27T08:47:17.315Z,3.70
2022-12-27T08:48:17.334Z,3.00
2022-12-27T08:49:17.323Z,3.30
2022-12-27T08:50:17.283Z,3.20
2022-12-27T08:51:27.247Z,2.80
2022-12-27T08:52:17.255Z,3.40
2022-12-27T08:53:17.232Z,3.10
2022-12-27T08:54:17.237Z,4.80
2022-12-27T08:55:17.210Z,4.00
2022-12-27T08:56:17.215Z,4.20
2022-12-27T08:57:17.175Z,3.40
2022-12-27T08:58:17.181Z,2.80
2022-12-27T08:59:17.152Z,3.10
2022-12-27T09:00:17.238Z,2.40
2022-12-27T09:01:17.347Z,2.60
2022-12-27T09:02:17.275Z,2.20
2022-12-27T09:03:17.161Z,2.70
2022-12-27T09:04:17.132Z,2.50
2022-12-27T09:05:17.203Z,3.70
2022-12-27T09:06:17.138Z,3.10
2022-12-27T09:07:17.096Z,2.50
2022-12-27T09:08:17.081Z,2.60
2022-12-27T09:09:17.061Z,2.60
2022-12-27T09:10:17.051Z,2.50
2022-12-27T09:11:17.141Z,3.20
2022-12-27T09:12:17.041Z,3.00
2022-12-27T09:13:17.017Z,3.50
2022-12-27T09:14:17.004Z,3.00
2022-12-27T09:15:17.001Z,2.70
2022-12-27T09:16:17.069Z,2.90
2022-12-27T09:17:16.984Z,2.80
2022-12-27T09:18:16.997Z,3.40
2022-12-27T09:19:16.965Z,3.30
2022-12-27T09:20:16.935Z,3.10
2022-12-27T09:21:17.032Z,3.10
2022-12-27T09:22:16.939Z,3.00
2022-12-27T09:23:16.907Z,3.10
2022-12-27T09:24:16.939Z,2.70
2022-12-27T09:25:16.948Z,4.10
2022-12-27T09:26:16.904Z,2.50
2022-12-27T09:27:16.874Z,2.70
2022-12-27T09:28:16.862Z,4.20
2022-12-27T09:29:16.873Z,3.50
2022-12-27T09:30:16.870Z,4.10
2022-12-27T09:31:16.914Z,3.50
2022-12-27T09:32:16.820Z,3.50
2022-12-27T09:33:16.819Z,3.30
2022-12-27T09:34:16.811Z,4.60
2022-12-27T09:35:16.806Z,5.40
2022-12-27T09:36:16.842Z,5.20
2022-12-27T09:37:16.831Z,5.00
2022-12-27T09:38:16.762Z,5.20
2022-12-27T09:39:16.772Z,5.30
2022-12-27T09:40:16.746Z,5.50
2022-12-27T09:41:37.706Z,5.40
2022-12-27T09:43:25.393Z,5.30
2022-12-27T09:44:16.695Z,5.80
2022-12-27T09:45:16.691Z,5.60
2022-12-27T09:46:16.748Z,5.50
2022-12-27T09:47:16.681Z,5.40
2022-12-27T09:48:16.658Z,5.90
2022-12-27T09:49:16.678Z,5.30
2022-12-27T09:50:16.637Z,7.10
2022-12-27T09:51:16.680Z,6.50
2022-12-27T09:52:16.623Z,7.10
2022-12-27T09:53:16.618Z,8.10
2022-12-27T09:54:16.629Z,5.40
2022-12-27T09:55:16.583Z,6.40
2022-12-27T09:56:16.573Z,6.10
2022-12-27T09:59:32.352Z,6.10
2022-12-27T10:00:35.041Z,6.90
2022-12-27T10:01:41.301Z,6.50
2022-12-27T10:06:09.039Z,7.40
2022-12-27T10:07:08.572Z,8.10
2022-12-27T10:08:08.572Z,6.50
2022-12-27T10:09:08.571Z,9.40
2022-12-27T10:10:08.555Z,8.20
2022-12-27T10:11:08.571Z,4.90
2022-12-27T10:12:08.716Z,5.80
2022-12-27T10:13:08.723Z,5.60
2022-12-27T10:14:08.494Z,7.20
2022-12-27T10:15:08.474Z,5.90
2022-12-27T10:16:08.532Z,5.00
2022-12-27T10:17:08.497Z,5.40
2022-12-27T10:18:08.455Z,6.80
2022-12-27T10:19:08.462Z,5.70
2022-12-27T10:20:08.546Z,6.30
2022-12-27T10:21:08.440Z,4.40
2022-12-27T10:22:08.461Z,4.90
2022-12-27T10:23:08.388Z,6.20
2022-12-27T10:24:08.395Z,4.90
2022-12-27T10:25:08.434Z,5.40
2022-12-27T10:26:08.479Z,3.60
2022-12-27T10:27:08.374Z,4.60
2022-12-27T10:28:08.516Z,4.50
2022-12-27T10:29:08.330Z,4.00
2022-12-27T10:30:08.330Z,4.80
2022-12-27T10:31:08.433Z,4.80
2022-12-27T10:32:08.329Z,4.70
2022-12-27T10:33:08.302Z,4.40
2022-12-27T10:34:10.805Z,4.20
2022-12-27T10:35:08.284Z,3.50
2022-12-27T10:36:08.270Z,4.30
2022-12-27T10:37:08.317Z,5.10
2022-12-27T10:38:08.290Z,6.20
2022-12-27T10:39:14.741Z,3.40
2022-12-27T10:40:16.729Z,3.60
2022-12-27T10:41:14.721Z,4.10
2022-12-27T10:42:08.236Z,4.30
2022-12-27T10:43:08.199Z,3.60
2022-12-27T10:44:08.192Z,4.20
2022-12-27T10:45:08.183Z,3.90
2022-12-27T10:46:08.207Z,4.30
2022-12-27T10:47:08.193Z,4.20
2022-12-27T10:48:08.149Z,3.90
2022-12-27T10:49:21.042Z,4.50
2022-12-27T10:50:08.141Z,3.90
2022-12-27T10:51:08.138Z,3.70
2022-12-27T10:52:08.135Z,2.50
2022-12-27T10:53:08.087Z,2.80
2022-12-27T10:54:08.134Z,3.30
2022-12-27T10:55:08.065Z,3.90
2022-12-27T10:56:08.080Z,4.80
2022-12-27T10:57:08.075Z,4.70
2022-12-27T10:58:08.043Z,3.20
2022-12-27T10:59:08.020Z,2.70
2022-12-27T11:00:08.033Z,3.20
2022-12-27T11:01:08.066Z,3.70
2022-12-27T11:02:08.131Z,3.00
2022-12-27T11:03:08.124Z,3.40
2022-12-27T11:04:08.005Z,3.70
2022-12-27T11:05:08.055Z,3.10
2022-12-27T11:06:08.049Z,3.50
2022-12-27T11:07:07.955Z,3.30
2022-12-27T11:08:07.967Z,3.60
2022-12-27T11:09:07.923Z,3.50
2022-12-27T11:10:07.938Z,4.10
2022-12-27T11:11:07.903Z,3.20
2022-12-27T11:12:07.902Z,3.20
2022-12-27T11:13:07.928Z,3.20
2022-12-27T11:14:14.721Z,2.60
2022-12-27T11:15:14.399Z,3.10
2022-12-27T11:16:50.897Z,3.70
2022-12-27T11:17:07.835Z,3.00
2022-12-27T11:18:15.635Z,2.90
2022-12-27T11:19:14.332Z,5.30
2022-12-27T11:20:07.871Z,3.50
2022-12-27T11:21:09.631Z,4.50
2022-12-27T11:22:07.818Z,3.10
2022-12-27T11:23:07.815Z,3.20
2022-12-27T11:24:07.787Z,4.00
2022-12-27T11:25:07.773Z,4.00
2022-12-27T11:26:07.780Z,3.40
2022-12-27T11:27:07.763Z,3.50
2022-12-27T11:28:07.808Z,3.50
2022-12-27T11:29:07.733Z,3.30
2022-12-27T11:30:07.753Z,3.30
2022-12-27T11:31:07.773Z,4.30
2022-12-27T11:32:07.734Z,3.30
2022-12-27T11:33:07.717Z,3.20
2022-12-27T11:34:07.709Z,3.50
2022-12-27T11:35:07.664Z,3.80
2022-12-27T11:36:07.712Z,4.50
2022-12-27T11:37:07.639Z,3.10
2022-12-27T11:38:07.660Z,3.30
2022-12-27T11:39:07.683Z,3.30
2022-12-27T11:40:07.645Z,3.50
2022-12-27T11:41:14.241Z,3.70
2022-12-27T11:42:07.604Z,2.90
2022-12-27T11:43:07.616Z,3.10
2022-12-27T11:44:07.590Z,3.60
2022-12-27T11:45:07.566Z,2.80
2022-12-27T11:46:07.548Z,3.10
2022-12-27T11:47:07.578Z,3.30
2022-12-27T11:48:07.566Z,2.90
2022-12-27T11:49:07.507Z,2.70
2022-12-27T11:50:07.528Z,2.40
2022-12-27T11:51:07.496Z,2.50
2022-12-27T11:52:07.540Z,3.20
2022-12-27T11:53:07.599Z,2.60
2022-12-27T11:54:07.504Z,3.70
2022-12-27T11:55:07.539Z,3.10
2022-12-27T11:56:07.460Z,3.00
2022-12-27T11:57:07.448Z,2.70
2022-12-27T11:58:07.513Z,2.30
2022-12-27T11:59:07.769Z,3.00
2022-12-27T12:00:07.437Z,2.60
2022-12-27T12:01:07.410Z,2.80
2022-12-27T12:02:07.533Z,3.50
2022-12-27T12:03:07.527Z,3.70
2022-12-27T12:04:07.376Z,2.60
2022-12-27T12:05:07.362Z,3.00
2022-12-27T12:06:07.350Z,2.80
2022-12-27T12:07:07.331Z,3.40
2022-12-27T12:08:07.360Z,2.80
2022-12-27T12:09:07.324Z,2.20
2022-12-27T12:10:07.328Z,2.30
2022-12-27T12:11:07.293Z,3.30
2022-12-27T12:12:07.302Z,2.90
2022-12-27T12:13:07.314Z,3.20
2022-12-27T12:14:07.269Z,2.90
2022-12-27T12:15:07.303Z,3.30
2022-12-27T12:16:07.269Z,3.80
2022-12-27T12:17:07.249Z,3.30
2022-12-27T12:18:07.230Z,2.80
2022-12-27T12:19:07.238Z,1.50
2022-12-27T12:20:07.246Z,2.00
2022-12-27T12:21:07.204Z,3.20
2022-12-27T12:22:07.188Z,2.10
2022-12-27T12:23:15.127Z,2.80
2022-12-27T12:24:07.176Z,2.10
2022-12-27T12:25:14.664Z,2.20
2022-12-27T12:26:07.152Z,2.80
2022-12-27T12:27:07.145Z,3.90
2022-12-27T12:28:30.049Z,2.00
2022-12-27T12:29:07.157Z,2.20
2022-12-27T12:30:07.117Z,1.90
2022-12-27T12:31:07.088Z,2.70
2022-12-27T12:32:07.147Z,1.70
2022-12-27T12:33:07.074Z,2.00
2022-12-27T12:34:07.118Z,2.40
2022-12-27T12:35:07.090Z,2.30
2022-12-27T12:36:07.076Z,2.00
2022-12-27T12:37:07.042Z,1.80
2022-12-27T12:38:07.094Z,1.90
2022-12-27T12:39:07.048Z,2.10
2022-12-27T12:40:07.029Z,1.80
2022-12-27T12:41:06.990Z,2.00
2022-12-27T12:42:06.990Z,1.70
2022-12-27T12:43:06.982Z,2.00
2022-12-27T12:44:06.987Z,1.80
2022-12-27T12:45:06.952Z,2.50
2022-12-27T12:46:07.044Z,2.30
2022-12-27T12:47:07.004Z,1.70
2022-12-27T12:48:06.929Z,1.70
2022-12-27T12:49:06.937Z,1.60
2022-12-27T12:50:13.223Z,1.40
2022-12-27T12:51:06.976Z,1.60
2022-12-27T12:52:06.882Z,1.60
2022-12-27T12:53:06.958Z,1.60
2022-12-27T12:54:07.074Z,1.40
2022-12-27T12:55:06.936Z,1.60
2022-12-27T12:56:06.889Z,1.60
2022-12-27T12:57:06.847Z,1.70
2022-12-27T12:58:06.847Z,1.90
2022-12-27T12:59:06.854Z,1.70
2022-12-27T13:00:06.835Z,1.70
2022-12-27T13:01:06.884Z,1.50
2022-12-27T13:02:07.044Z,1.80
2022-12-27T13:03:07.042Z,1.90
2022-12-27T13:04:07.020Z,1.50
2022-12-27T13:05:06.891Z,1.50
2022-12-27T13:06:06.774Z,1.40
2022-12-27T13:07:06.789Z,1.70
2022-12-27T13:08:06.722Z,1.50
2022-12-27T13:09:06.731Z,1.60
2022-12-27T13:10:06.698Z,1.50
2022-12-27T13:12:32.750Z,2.00
2022-12-27T13:13:54.658Z,1.60
2022-12-27T13:14:55.572Z,1.60
2022-12-27T13:15:55.569Z,2.20
2022-12-27T13:16:55.540Z,1.70
2022-12-27T13:17:55.612Z,1.80
2022-12-27T13:18:55.529Z,1.40
2022-12-27T13:19:55.491Z,1.50
2022-12-27T13:20:55.459Z,1.60
2022-12-27T13:21:55.514Z,1.40
2022-12-27T13:22:55.514Z,1.50
2022-12-27T13:23:55.491Z,1.40
2022-12-27T13:24:55.586Z,1.20
2022-12-27T13:25:55.407Z,1.60
2022-12-27T13:26:55.436Z,1.60
2022-12-27T13:27:55.393Z,1.20
2022-12-27T13:28:55.388Z,1.50
2022-12-27T13:29:55.397Z,1.50
2022-12-27T13:30:55.435Z,1.30
2022-12-27T13:31:55.478Z,1.50
2022-12-27T13:32:55.383Z,1.80
2022-12-27T13:33:55.329Z,1.50
2022-12-27T13:34:55.350Z,1.30
2022-12-27T13:35:55.619Z,1.40
2022-12-27T13:36:55.302Z,1.20
2022-12-27T13:37:55.299Z,10.60
2022-12-27T13:38:55.352Z,4.10
2022-12-27T13:39:55.300Z,5.20
2022-12-27T13:40:55.297Z,1.30
2022-12-27T13:41:55.301Z,1.40
2022-12-27T13:42:55.242Z,1.50
2022-12-27T13:43:55.248Z,1.40
2022-12-27T13:44:55.358Z,1.30
2022-12-27T13:45:55.309Z,1.50
2022-12-27T13:46:55.210Z,1.40
2022-12-27T13:47:55.189Z,3.80
2022-12-27T13:48:55.212Z,1.40
2022-12-27T13:49:55.195Z,1.60
2022-12-27T13:50:55.307Z,1.10
2022-12-27T13:51:55.148Z,0.90
2022-12-27T13:52:59.854Z,1.10
2022-12-27T13:53:55.188Z,1.50
2022-12-27T13:54:55.189Z,1.30
2022-12-27T13:55:55.143Z,1.10
2022-12-27T13:56:55.700Z,1.30
2022-12-27T13:57:55.082Z,1.00
2022-12-27T13:58:59.505Z,1.30
2022-12-27T13:59:55.170Z,1.10
2022-12-27T14:00:55.056Z,1.10